sensor_id;sensor_type;location;lat;lon;timestamp;temperature;humidity
20672;DHT22;10495;50.922;4.760;2023-04-21T00:00:48;9.00;78.60
20672;DHT22;10495;50.922;4.760;2023-04-21T00:03:13;8.90;79.10
20672;DHT22;10495;50.922;4.760;2023-04-21T00:05:39;9.00;79.60
20672;DHT22;10495;50.922;4.760;2023-04-21T00:08:07;9.00;79.50
20672;DHT22;10495;50.922;4.760;2023-04-21T00:10:33;9.00;80.10
20672;DHT22;10495;50.922;4.760;2023-04-21T00:12:58;9.10;80.80
20672;DHT22;10495;50.922;4.760;2023-04-21T00:15:24;9.10;81.10
20672;DHT22;10495;50.922;4.760;2023-04-21T00:17:50;9.00;82.00
20672;DHT22;10495;50.922;4.760;2023-04-21T00:20:16;9.20;81.80
20672;DHT22;10495;50.922;4.760;2023-04-21T00:22:41;9.20;81.70
20672;DHT22;10495;50.922;4.760;2023-04-21T00:25:07;9.10;82.80
20672;DHT22;10495;50.922;4.760;2023-04-21T00:27:33;9.20;82.70
20672;DHT22;10495;50.922;4.760;2023-04-21T00:29:59;9.00;83.50
20672;DHT22;10495;50.922;4.760;2023-04-21T00:32:24;9.10;83.40
20672;DHT22;10495;50.922;4.760;2023-04-21T00:34:50;9.30;83.30
20672;DHT22;10495;50.922;4.760;2023-04-21T00:37:16;9.20;83.40
20672;DHT22;10495;50.922;4.760;2023-04-21T00:39:41;9.30;83.80
20672;DHT22;10495;50.922;4.760;2023-04-21T00:42:07;9.40;83.50
20672;DHT22;10495;50.922;4.760;2023-04-21T00:44:33;9.40;83.60
20672;DHT22;10495;50.922;4.760;2023-04-21T00:46:58;9.50;83.40
20672;DHT22;10495;50.922;4.760;2023-04-21T00:49:25;9.20;84.30
20672;DHT22;10495;50.922;4.760;2023-04-21T00:51:51;9.40;84.30
20672;DHT22;10495;50.922;4.760;2023-04-21T00:54:18;9.10;85.20
20672;DHT22;10495;50.922;4.760;2023-04-21T00:56:44;9.20;85.40
20672;DHT22;10495;50.922;4.760;2023-04-21T00:59:10;9.20;85.40
20672;DHT22;10495;50.922;4.760;2023-04-21T01:01:35;9.50;85.40
20672;DHT22;10495;50.922;4.760;2023-04-21T01:04:02;9.30;85.80
20672;DHT22;10495;50.922;4.760;2023-04-21T01:06:30;9.10;86.30
20672;DHT22;10495;50.922;4.760;2023-04-21T01:08:59;8.90;87.50
20672;DHT22;10495;50.922;4.760;2023-04-21T01:11:25;9.00;87.70
20672;DHT22;10495;50.922;4.760;2023-04-21T01:13:52;9.10;86.60
20672;DHT22;10495;50.922;4.760;2023-04-21T01:16:21;9.10;87.20
20672;DHT22;10495;50.922;4.760;2023-04-21T01:18:51;9.00;87.50
20672;DHT22;10495;50.922;4.760;2023-04-21T01:21:21;9.10;87.50
20672;DHT22;10495;50.922;4.760;2023-04-21T01:23:46;8.80;88.50
20672;DHT22;10495;50.922;4.760;2023-04-21T01:26:12;8.90;88.30
20672;DHT22;10495;50.922;4.760;2023-04-21T01:28:38;8.90;88.70
20672;DHT22;10495;50.922;4.760;2023-04-21T01:31:04;8.90;88.70
20672;DHT22;10495;50.922;4.760;2023-04-21T01:33:30;8.80;89.40
20672;DHT22;10495;50.922;4.760;2023-04-21T01:35:56;8.90;89.00
20672;DHT22;10495;50.922;4.760;2023-04-21T01:38:22;8.90;88.80
20672;DHT22;10495;50.922;4.760;2023-04-21T01:40:50;9.30;88.10
20672;DHT22;10495;50.922;4.760;2023-04-21T01:43:18;9.30;87.30
20672;DHT22;10495;50.922;4.760;2023-04-21T01:45:44;9.20;88.20
20672;DHT22;10495;50.922;4.760;2023-04-21T01:48:09;9.00;88.70
20672;DHT22;10495;50.922;4.760;2023-04-21T01:50:35;8.90;89.40
20672;DHT22;10495;50.922;4.760;2023-04-21T01:53:01;8.90;89.40
20672;DHT22;10495;50.922;4.760;2023-04-21T01:55:26;8.70;90.10
20672;DHT22;10495;50.922;4.760;2023-04-21T01:57:53;8.70;90.20
20672;DHT22;10495;50.922;4.760;2023-04-21T02:00:22;8.70;90.20
20672;DHT22;10495;50.922;4.760;2023-04-21T02:02:47;8.80;90.40
20672;DHT22;10495;50.922;4.760;2023-04-21T02:05:13;8.80;90.20
20672;DHT22;10495;50.922;4.760;2023-04-21T02:07:39;8.90;90.10
20672;DHT22;10495;50.922;4.760;2023-04-21T02:10:05;8.80;90.30
20672;DHT22;10495;50.922;4.760;2023-04-21T02:12:31;8.70;90.70
20672;DHT22;10495;50.922;4.760;2023-04-21T02:14:56;8.80;90.60
20672;DHT22;10495;50.922;4.760;2023-04-21T02:17:22;8.60;90.80
20672;DHT22;10495;50.922;4.760;2023-04-21T02:19:48;8.60;90.90
20672;DHT22;10495;50.922;4.760;2023-04-21T02:22:13;8.50;91.00
20672;DHT22;10495;50.922;4.760;2023-04-21T02:24:39;8.60;91.00
20672;DHT22;10495;50.922;4.760;2023-04-21T02:27:05;8.70;90.90
20672;DHT22;10495;50.922;4.760;2023-04-21T02:29:31;8.80;90.60
20672;DHT22;10495;50.922;4.760;2023-04-21T02:31:56;8.90;90.60
20672;DHT22;10495;50.922;4.760;2023-04-21T02:34:22;8.80;90.60
20672;DHT22;10495;50.922;4.760;2023-04-21T02:36:48;8.80;90.60
20672;DHT22;10495;50.922;4.760;2023-04-21T02:39:13;9.10;90.20
20672;DHT22;10495;50.922;4.760;2023-04-21T02:41:39;9.10;90.10
20672;DHT22;10495;50.922;4.760;2023-04-21T02:44:05;9.00;90.10
20672;DHT22;10495;50.922;4.760;2023-04-21T02:46:30;9.20;90.00
20672;DHT22;10495;50.922;4.760;2023-04-21T02:48:56;9.00;90.20
20672;DHT22;10495;50.922;4.760;2023-04-21T02:51:22;9.20;90.20
20672;DHT22;10495;50.922;4.760;2023-04-21T02:53:47;9.20;90.20
20672;DHT22;10495;50.922;4.760;2023-04-21T02:56:14;9.20;89.90
20672;DHT22;10495;50.922;4.760;2023-04-21T02:58:40;9.10;90.20
20672;DHT22;10495;50.922;4.760;2023-04-21T03:01:06;9.00;90.20
20672;DHT22;10495;50.922;4.760;2023-04-21T03:03:32;9.00;90.30
20672;DHT22;10495;50.922;4.760;2023-04-21T03:06:03;9.00;90.30
20672;DHT22;10495;50.922;4.760;2023-04-21T03:08:29;9.20;90.00
20672;DHT22;10495;50.922;4.760;2023-04-21T03:10:55;9.30;89.90
20672;DHT22;10495;50.922;4.760;2023-04-21T03:13:21;9.20;90.10
20672;DHT22;10495;50.922;4.760;2023-04-21T03:15:48;9.00;90.20
20672;DHT22;10495;50.922;4.760;2023-04-21T03:18:14;9.00;90.20
20672;DHT22;10495;50.922;4.760;2023-04-21T03:20:40;9.00;90.30
20672;DHT22;10495;50.922;4.760;2023-04-21T03:23:05;9.20;90.20
20672;DHT22;10495;50.922;4.760;2023-04-21T03:25:31;9.30;90.10
20672;DHT22;10495;50.922;4.760;2023-04-21T03:27:57;9.30;89.50
20672;DHT22;10495;50.922;4.760;2023-04-21T03:30:22;9.00;90.00
20672;DHT22;10495;50.922;4.760;2023-04-21T03:32:50;9.10;90.20
20672;DHT22;10495;50.922;4.760;2023-04-21T03:35:15;9.20;89.70
20672;DHT22;10495;50.922;4.760;2023-04-21T03:37:41;9.20;89.60
20672;DHT22;10495;50.922;4.760;2023-04-21T03:40:07;9.20;90.00
20672;DHT22;10495;50.922;4.760;2023-04-21T03:42:34;9.20;89.80
20672;DHT22;10495;50.922;4.760;2023-04-21T03:45:04;8.90;90.00
20672;DHT22;10495;50.922;4.760;2023-04-21T03:47:30;9.00;90.00
20672;DHT22;10495;50.922;4.760;2023-04-21T03:49:55;8.90;90.20
20672;DHT22;10495;50.922;4.760;2023-04-21T03:52:21;9.10;89.80
20672;DHT22;10495;50.922;4.760;2023-04-21T03:54:47;9.10;89.30
20672;DHT22;10495;50.922;4.760;2023-04-21T03:57:13;9.00;89.50
20672;DHT22;10495;50.922;4.760;2023-04-21T03:59:39;8.80;89.70
20672;DHT22;10495;50.922;4.760;2023-04-21T04:02:04;8.90;89.70
20672;DHT22;10495;50.922;4.760;2023-04-21T04:04:30;8.70;89.80
20672;DHT22;10495;50.922;4.760;2023-04-21T04:06:56;8.60;89.90
20672;DHT22;10495;50.922;4.760;2023-04-21T04:09:22;8.70;89.90
20672;DHT22;10495;50.922;4.760;2023-04-21T04:11:48;8.90;88.80
20672;DHT22;10495;50.922;4.760;2023-04-21T04:14:13;8.90;88.40
20672;DHT22;10495;50.922;4.760;2023-04-21T04:16:39;8.90;87.90
20672;DHT22;10495;50.922;4.760;2023-04-21T04:19:06;9.00;88.00
20672;DHT22;10495;50.922;4.760;2023-04-21T04:21:32;9.10;87.20
20672;DHT22;10495;50.922;4.760;2023-04-21T04:23:58;9.10;86.80
20672;DHT22;10495;50.922;4.760;2023-04-21T04:26:24;9.10;86.80
20672;DHT22;10495;50.922;4.760;2023-04-21T04:28:51;9.00;86.90
20672;DHT22;10495;50.922;4.760;2023-04-21T04:31:17;8.70;88.00
20672;DHT22;10495;50.922;4.760;2023-04-21T04:33:43;8.70;88.50
20672;DHT22;10495;50.922;4.760;2023-04-21T04:36:09;8.70;88.20
20672;DHT22;10495;50.922;4.760;2023-04-21T04:38:36;8.60;89.10
20672;DHT22;10495;50.922;4.760;2023-04-21T04:41:05;8.50;88.60
20672;DHT22;10495;50.922;4.760;2023-04-21T04:43:33;8.50;88.70
20672;DHT22;10495;50.922;4.760;2023-04-21T04:46:01;8.60;88.20
20672;DHT22;10495;50.922;4.760;2023-04-21T04:48:27;8.60;88.10
20672;DHT22;10495;50.922;4.760;2023-04-21T04:50:53;8.50;87.90
20672;DHT22;10495;50.922;4.760;2023-04-21T04:53:19;8.60;87.80
20672;DHT22;10495;50.922;4.760;2023-04-21T04:55:44;8.50;88.20
20672;DHT22;10495;50.922;4.760;2023-04-21T04:58:11;8.30;88.50
20672;DHT22;10495;50.922;4.760;2023-04-21T05:00:37;8.20;89.10
20672;DHT22;10495;50.922;4.760;2023-04-21T05:03:03;8.20;88.80
20672;DHT22;10495;50.922;4.760;2023-04-21T05:05:28;8.30;89.00
20672;DHT22;10495;50.922;4.760;2023-04-21T05:07:54;8.40;88.40
20672;DHT22;10495;50.922;4.760;2023-04-21T05:10:20;8.30;89.10
20672;DHT22;10495;50.922;4.760;2023-04-21T05:12:46;8.30;88.80
20672;DHT22;10495;50.922;4.760;2023-04-21T05:15:11;8.10;89.30
20672;DHT22;10495;50.922;4.760;2023-04-21T05:17:37;8.10;89.90
20672;DHT22;10495;50.922;4.760;2023-04-21T05:20:04;8.50;88.80
20672;DHT22;10495;50.922;4.760;2023-04-21T05:22:30;8.60;88.50
20672;DHT22;10495;50.922;4.760;2023-04-21T05:24:55;8.70;88.00
20672;DHT22;10495;50.922;4.760;2023-04-21T05:27:21;8.80;88.10
20672;DHT22;10495;50.922;4.760;2023-04-21T05:29:47;8.90;87.50
20672;DHT22;10495;50.922;4.760;2023-04-21T05:32:12;8.90;87.60
20672;DHT22;10495;50.922;4.760;2023-04-21T05:34:38;8.90;87.60
20672;DHT22;10495;50.922;4.760;2023-04-21T05:37:04;8.80;88.30
20672;DHT22;10495;50.922;4.760;2023-04-21T05:39:29;8.90;88.30
20672;DHT22;10495;50.922;4.760;2023-04-21T05:41:55;8.90;88.80
20672;DHT22;10495;50.922;4.760;2023-04-21T05:44:21;8.90;88.40
20672;DHT22;10495;50.922;4.760;2023-04-21T05:46:46;9.10;88.00
20672;DHT22;10495;50.922;4.760;2023-04-21T05:49:12;9.10;88.90
20672;DHT22;10495;50.922;4.760;2023-04-21T05:51:38;9.30;88.40
20672;DHT22;10495;50.922;4.760;2023-04-21T05:54:03;9.60;87.40
20672;DHT22;10495;50.922;4.760;2023-04-21T05:56:29;9.80;87.40
20672;DHT22;10495;50.922;4.760;2023-04-21T05:58:55;9.90;87.30
20672;DHT22;10495;50.922;4.760;2023-04-21T06:01:20;10.10;87.40
20672;DHT22;10495;50.922;4.760;2023-04-21T06:03:46;10.40;86.50
20672;DHT22;10495;50.922;4.760;2023-04-21T06:06:15;10.60;85.80
20672;DHT22;10495;50.922;4.760;2023-04-21T06:08:40;11.00;84.50
20672;DHT22;10495;50.922;4.760;2023-04-21T06:11:06;11.20;82.70
20672;DHT22;10495;50.922;4.760;2023-04-21T06:13:32;11.30;82.10
20672;DHT22;10495;50.922;4.760;2023-04-21T06:15:57;11.50;80.60
20672;DHT22;10495;50.922;4.760;2023-04-21T06:18:25;11.60;81.40
20672;DHT22;10495;50.922;4.760;2023-04-21T06:20:54;11.80;80.60
20672;DHT22;10495;50.922;4.760;2023-04-21T06:23:20;12.00;79.30
20672;DHT22;10495;50.922;4.760;2023-04-21T06:25:46;12.20;78.50
20672;DHT22;10495;50.922;4.760;2023-04-21T06:28:12;12.40;76.60
20672;DHT22;10495;50.922;4.760;2023-04-21T06:30:38;12.40;77.50
20672;DHT22;10495;50.922;4.760;2023-04-21T06:33:03;12.50;77.10
20672;DHT22;10495;50.922;4.760;2023-04-21T06:35:31;12.70;76.70
20672;DHT22;10495;50.922;4.760;2023-04-21T06:37:56;12.70;75.80
20672;DHT22;10495;50.922;4.760;2023-04-21T06:40:22;12.90;76.00
20672;DHT22;10495;50.922;4.760;2023-04-21T06:42:47;12.90;75.40
20672;DHT22;10495;50.922;4.760;2023-04-21T06:45:13;13.00;75.20
20672;DHT22;10495;50.922;4.760;2023-04-21T06:47:39;13.20;74.90
20672;DHT22;10495;50.922;4.760;2023-04-21T06:50:05;13.40;73.60
20672;DHT22;10495;50.922;4.760;2023-04-21T06:52:31;13.50;73.00
20672;DHT22;10495;50.922;4.760;2023-04-21T06:54:57;13.60;72.80
20672;DHT22;10495;50.922;4.760;2023-04-21T06:57:23;13.70;71.70
20672;DHT22;10495;50.922;4.760;2023-04-21T06:59:48;13.60;72.20
20672;DHT22;10495;50.922;4.760;2023-04-21T07:02:14;13.70;71.10
20672;DHT22;10495;50.922;4.760;2023-04-21T07:04:39;13.50;71.10
20672;DHT22;10495;50.922;4.760;2023-04-21T07:07:05;13.40;71.90
20672;DHT22;10495;50.922;4.760;2023-04-21T07:09:31;13.40;72.30
20672;DHT22;10495;50.922;4.760;2023-04-21T07:11:58;13.20;72.70
20672;DHT22;10495;50.922;4.760;2023-04-21T07:14:24;13.10;72.10
20672;DHT22;10495;50.922;4.760;2023-04-21T07:16:50;13.30;72.30
20672;DHT22;10495;50.922;4.760;2023-04-21T07:19:16;13.20;72.70
20672;DHT22;10495;50.922;4.760;2023-04-21T07:21:41;13.20;73.60
20672;DHT22;10495;50.922;4.760;2023-04-21T07:24:07;13.40;73.40
20672;DHT22;10495;50.922;4.760;2023-04-21T07:26:33;13.50;73.00
20672;DHT22;10495;50.922;4.760;2023-04-21T07:28:58;13.90;71.80
20672;DHT22;10495;50.922;4.760;2023-04-21T07:31:24;14.00;72.10
20672;DHT22;10495;50.922;4.760;2023-04-21T07:33:50;14.10;71.70
20672;DHT22;10495;50.922;4.760;2023-04-21T07:36:16;14.50;70.90
20672;DHT22;10495;50.922;4.760;2023-04-21T07:38:42;14.80;69.00
20672;DHT22;10495;50.922;4.760;2023-04-21T07:41:11;15.20;67.60
20672;DHT22;10495;50.922;4.760;2023-04-21T07:43:38;15.60;67.80
20672;DHT22;10495;50.922;4.760;2023-04-21T07:46:04;15.90;63.40
20672;DHT22;10495;50.922;4.760;2023-04-21T07:48:30;16.20;62.60
20672;DHT22;10495;50.922;4.760;2023-04-21T07:50:55;16.10;62.90
20672;DHT22;10495;50.922;4.760;2023-04-21T07:53:23;16.40;61.60
20672;DHT22;10495;50.922;4.760;2023-04-21T07:55:48;16.60;60.90
20672;DHT22;10495;50.922;4.760;2023-04-21T07:58:14;16.60;59.70
20672;DHT22;10495;50.922;4.760;2023-04-21T08:00:41;16.90;59.30
20672;DHT22;10495;50.922;4.760;2023-04-21T08:03:06;16.70;59.80
20672;DHT22;10495;50.922;4.760;2023-04-21T08:05:32;16.50;60.10
20672;DHT22;10495;50.922;4.760;2023-04-21T08:07:58;16.80;59.70
20672;DHT22;10495;50.922;4.760;2023-04-21T08:10:23;16.90;59.80
20672;DHT22;10495;50.922;4.760;2023-04-21T08:12:49;17.40;58.60
20672;DHT22;10495;50.922;4.760;2023-04-21T08:15:15;17.40;58.20
20672;DHT22;10495;50.922;4.760;2023-04-21T08:17:41;17.50;58.20
20672;DHT22;10495;50.922;4.760;2023-04-21T08:20:07;17.60;58.40
20672;DHT22;10495;50.922;4.760;2023-04-21T08:22:33;17.80;59.00
20672;DHT22;10495;50.922;4.760;2023-04-21T08:25:01;17.90;58.70
20672;DHT22;10495;50.922;4.760;2023-04-21T08:27:27;17.90;58.90
20672;DHT22;10495;50.922;4.760;2023-04-21T08:29:53;18.30;58.70
20672;DHT22;10495;50.922;4.760;2023-04-21T08:32:19;18.80;57.50
20672;DHT22;10495;50.922;4.760;2023-04-21T08:34:50;18.80;57.20
20672;DHT22;10495;50.922;4.760;2023-04-21T08:37:17;18.90;57.70
20672;DHT22;10495;50.922;4.760;2023-04-21T08:39:44;19.10;56.50
20672;DHT22;10495;50.922;4.760;2023-04-21T08:42:12;18.90;56.90
20672;DHT22;10495;50.922;4.760;2023-04-21T08:44:37;18.80;57.20
20672;DHT22;10495;50.922;4.760;2023-04-21T08:47:05;19.00;56.40
20672;DHT22;10495;50.922;4.760;2023-04-21T08:49:31;19.00;57.00
20672;DHT22;10495;50.922;4.760;2023-04-21T08:51:59;18.90;56.60
20672;DHT22;10495;50.922;4.760;2023-04-21T08:54:25;18.70;56.90
20672;DHT22;10495;50.922;4.760;2023-04-21T08:56:51;18.60;56.70
20672;DHT22;10495;50.922;4.760;2023-04-21T08:59:17;19.00;56.20
20672;DHT22;10495;50.922;4.760;2023-04-21T09:02:08;19.20;56.00
20672;DHT22;10495;50.922;4.760;2023-04-21T09:04:38;19.50;55.50
20672;DHT22;10495;50.922;4.760;2023-04-21T09:07:04;19.40;55.20
20672;DHT22;10495;50.922;4.760;2023-04-21T09:09:30;19.20;56.10
20672;DHT22;10495;50.922;4.760;2023-04-21T09:11:56;19.30;55.00
20672;DHT22;10495;50.922;4.760;2023-04-21T09:14:30;19.00;55.00
20672;DHT22;10495;50.922;4.760;2023-04-21T09:17:03;19.10;55.50
20672;DHT22;10495;50.922;4.760;2023-04-21T09:19:30;19.40;56.00
20672;DHT22;10495;50.922;4.760;2023-04-21T09:21:59;19.50;55.60
20672;DHT22;10495;50.922;4.760;2023-04-21T09:24:24;19.90;55.10
20672;DHT22;10495;50.922;4.760;2023-04-21T09:26:51;20.00;54.50
20672;DHT22;10495;50.922;4.760;2023-04-21T09:29:17;19.70;54.60
20672;DHT22;10495;50.922;4.760;2023-04-21T09:31:46;19.40;56.50
20672;DHT22;10495;50.922;4.760;2023-04-21T09:36:44;19.80;55.30
20672;DHT22;10495;50.922;4.760;2023-04-21T09:39:11;19.60;54.20
20672;DHT22;10495;50.922;4.760;2023-04-21T09:41:37;19.90;54.20
20672;DHT22;10495;50.922;4.760;2023-04-21T09:44:02;19.90;54.20
20672;DHT22;10495;50.922;4.760;2023-04-21T09:46:33;20.20;54.40
20672;DHT22;10495;50.922;4.760;2023-04-21T09:49:00;20.30;53.90
20672;DHT22;10495;50.922;4.760;2023-04-21T09:51:26;19.80;54.10
20672;DHT22;10495;50.922;4.760;2023-04-21T09:53:58;19.70;54.50
20672;DHT22;10495;50.922;4.760;2023-04-21T09:56:24;20.30;54.60
20672;DHT22;10495;50.922;4.760;2023-04-21T09:58:53;20.00;54.10
20672;DHT22;10495;50.922;4.760;2023-04-21T10:01:19;20.20;53.30
20672;DHT22;10495;50.922;4.760;2023-04-21T10:03:47;20.60;53.80
20672;DHT22;10495;50.922;4.760;2023-04-21T10:06:13;20.80;53.60
20672;DHT22;10495;50.922;4.760;2023-04-21T10:08:40;20.20;53.20
20672;DHT22;10495;50.922;4.760;2023-04-21T10:11:07;20.20;53.00
20672;DHT22;10495;50.922;4.760;2023-04-21T10:13:33;20.30;54.60
20672;DHT22;10495;50.922;4.760;2023-04-21T10:16:08;20.30;53.60
20672;DHT22;10495;50.922;4.760;2023-04-21T10:18:41;20.70;52.60
20672;DHT22;10495;50.922;4.760;2023-04-21T10:21:08;20.30;54.00
20672;DHT22;10495;50.922;4.760;2023-04-21T10:23:38;20.10;52.50
20672;DHT22;10495;50.922;4.760;2023-04-21T10:31:51;18.40;53.90
20672;DHT22;10495;50.922;4.760;2023-04-21T10:34:39;17.60;54.90
20672;DHT22;10495;50.922;4.760;2023-04-21T10:39:35;17.40;54.60
20672;DHT22;10495;50.922;4.760;2023-04-21T10:44:43;17.00;55.00
20672;DHT22;10495;50.922;4.760;2023-04-21T10:47:10;16.90;54.80
20672;DHT22;10495;50.922;4.760;2023-04-21T10:49:39;17.20;54.50
20672;DHT22;10495;50.922;4.760;2023-04-21T10:52:06;17.20;54.70
20672;DHT22;10495;50.922;4.760;2023-04-21T10:57:16;17.40;54.10
20672;DHT22;10495;50.922;4.760;2023-04-21T10:59:43;17.30;54.50
20672;DHT22;10495;50.922;4.760;2023-04-21T11:02:13;17.30;54.10
20672;DHT22;10495;50.922;4.760;2023-04-21T11:04:40;17.40;54.20
20672;DHT22;10495;50.922;4.760;2023-04-21T11:07:17;17.40;54.20
20672;DHT22;10495;50.922;4.760;2023-04-21T11:09:45;17.20;54.10
20672;DHT22;10495;50.922;4.760;2023-04-21T11:12:16;17.30;53.70
20672;DHT22;10495;50.922;4.760;2023-04-21T11:14:45;17.50;54.20
20672;DHT22;10495;50.922;4.760;2023-04-21T11:17:14;17.40;54.90
20672;DHT22;10495;50.922;4.760;2023-04-21T11:19:41;17.20;55.70
20672;DHT22;10495;50.922;4.760;2023-04-21T11:22:06;17.40;54.70
20672;DHT22;10495;50.922;4.760;2023-04-21T11:24:32;17.20;54.50
20672;DHT22;10495;50.922;4.760;2023-04-21T11:26:58;17.30;54.50
20672;DHT22;10495;50.922;4.760;2023-04-21T11:29:27;17.30;54.70
20672;DHT22;10495;50.922;4.760;2023-04-21T11:31:57;17.30;55.30
20672;DHT22;10495;50.922;4.760;2023-04-21T11:34:25;17.50;54.30
20672;DHT22;10495;50.922;4.760;2023-04-21T11:36:52;17.30;53.90
20672;DHT22;10495;50.922;4.760;2023-04-21T11:39:18;17.30;54.40
20672;DHT22;10495;50.922;4.760;2023-04-21T11:41:48;17.20;54.20
20672;DHT22;10495;50.922;4.760;2023-04-21T11:44:31;17.20;54.90
20672;DHT22;10495;50.922;4.760;2023-04-21T11:46:57;17.60;53.90
20672;DHT22;10495;50.922;4.760;2023-04-21T11:49:26;17.90;54.20
20672;DHT22;10495;50.922;4.760;2023-04-21T11:51:53;17.90;53.80
20672;DHT22;10495;50.922;4.760;2023-04-21T11:54:19;17.80;54.30
20672;DHT22;10495;50.922;4.760;2023-04-21T11:56:47;17.80;54.60
20672;DHT22;10495;50.922;4.760;2023-04-21T11:59:14;17.70;55.60
20672;DHT22;10495;50.922;4.760;2023-04-21T12:01:48;17.80;55.60
20672;DHT22;10495;50.922;4.760;2023-04-21T12:04:16;17.80;54.40
20672;DHT22;10495;50.922;4.760;2023-04-21T12:06:42;18.20;53.70
20672;DHT22;10495;50.922;4.760;2023-04-21T12:09:18;17.70;54.30
20672;DHT22;10495;50.922;4.760;2023-04-21T12:11:50;17.60;55.20
20672;DHT22;10495;50.922;4.760;2023-04-21T12:14:17;17.40;55.00
20672;DHT22;10495;50.922;4.760;2023-04-21T12:16:43;17.40;54.60
20672;DHT22;10495;50.922;4.760;2023-04-21T12:19:09;17.40;54.90
20672;DHT22;10495;50.922;4.760;2023-04-21T12:21:36;17.00;55.10
20672;DHT22;10495;50.922;4.760;2023-04-21T12:24:04;17.50;53.80
20672;DHT22;10495;50.922;4.760;2023-04-21T12:26:30;17.90;52.80
20672;DHT22;10495;50.922;4.760;2023-04-21T12:28:55;17.90;52.50
20672;DHT22;10495;50.922;4.760;2023-04-21T12:31:21;18.20;51.50
20672;DHT22;10495;50.922;4.760;2023-04-21T12:33:47;18.10;51.30
20672;DHT22;10495;50.922;4.760;2023-04-21T12:36:12;17.70;51.50
20672;DHT22;10495;50.922;4.760;2023-04-21T12:38:38;17.30;52.30
20672;DHT22;10495;50.922;4.760;2023-04-21T12:41:04;17.40;52.50
20672;DHT22;10495;50.922;4.760;2023-04-21T12:43:30;17.80;51.50
20672;DHT22;10495;50.922;4.760;2023-04-21T12:45:56;18.00;51.30
20672;DHT22;10495;50.922;4.760;2023-04-21T12:48:22;18.00;51.10
20672;DHT22;10495;50.922;4.760;2023-04-21T12:50:48;18.10;51.20
20672;DHT22;10495;50.922;4.760;2023-04-21T12:53:13;17.70;50.80
20672;DHT22;10495;50.922;4.760;2023-04-21T12:55:39;17.60;51.50
20672;DHT22;10495;50.922;4.760;2023-04-21T12:58:05;17.70;51.60
20672;DHT22;10495;50.922;4.760;2023-04-21T13:00:30;18.10;51.50
20672;DHT22;10495;50.922;4.760;2023-04-21T13:02:57;18.50;50.70
20672;DHT22;10495;50.922;4.760;2023-04-21T13:05:23;18.30;50.30
20672;DHT22;10495;50.922;4.760;2023-04-21T13:07:48;18.40;50.30
20672;DHT22;10495;50.922;4.760;2023-04-21T13:10:14;18.30;50.80
20672;DHT22;10495;50.922;4.760;2023-04-21T13:12:40;18.30;51.30
20672;DHT22;10495;50.922;4.760;2023-04-21T13:15:07;18.30;51.50
20672;DHT22;10495;50.922;4.760;2023-04-21T13:17:32;18.40;51.20
20672;DHT22;10495;50.922;4.760;2023-04-21T13:19:58;18.50;51.40
20672;DHT22;10495;50.922;4.760;2023-04-21T13:22:24;18.90;51.00
20672;DHT22;10495;50.922;4.760;2023-04-21T13:24:50;19.10;50.30
20672;DHT22;10495;50.922;4.760;2023-04-21T13:27:15;19.30;49.40
20672;DHT22;10495;50.922;4.760;2023-04-21T13:29:41;19.20;49.50
20672;DHT22;10495;50.922;4.760;2023-04-21T13:32:07;18.80;49.80
20672;DHT22;10495;50.922;4.760;2023-04-21T13:34:33;18.90;49.20
20672;DHT22;10495;50.922;4.760;2023-04-21T13:37:00;19.10;49.90
20672;DHT22;10495;50.922;4.760;2023-04-21T13:39:25;19.00;50.20
20672;DHT22;10495;50.922;4.760;2023-04-21T13:41:52;19.40;49.80
20672;DHT22;10495;50.922;4.760;2023-04-21T13:44:18;19.30;49.40
20672;DHT22;10495;50.922;4.760;2023-04-21T13:46:45;19.40;49.80
20672;DHT22;10495;50.922;4.760;2023-04-21T13:49:11;19.20;50.20
20672;DHT22;10495;50.922;4.760;2023-04-21T13:51:37;19.40;49.50
20672;DHT22;10495;50.922;4.760;2023-04-21T13:54:02;19.30;50.00
20672;DHT22;10495;50.922;4.760;2023-04-21T13:56:28;19.50;49.30
20672;DHT22;10495;50.922;4.760;2023-04-21T13:58:54;19.50;48.90
20672;DHT22;10495;50.922;4.760;2023-04-21T14:01:20;19.60;48.60
20672;DHT22;10495;50.922;4.760;2023-04-21T14:03:45;19.50;49.10
20672;DHT22;10495;50.922;4.760;2023-04-21T14:06:11;19.30;49.70
20672;DHT22;10495;50.922;4.760;2023-04-21T14:08:37;19.00;49.70
20672;DHT22;10495;50.922;4.760;2023-04-21T14:11:03;19.00;49.60
20672;DHT22;10495;50.922;4.760;2023-04-21T14:13:29;19.00;50.10
20672;DHT22;10495;50.922;4.760;2023-04-21T14:15:55;18.60;49.20
20672;DHT22;10495;50.922;4.760;2023-04-21T14:18:22;18.30;49.90
20672;DHT22;10495;50.922;4.760;2023-04-21T14:20:48;18.40;50.20
20672;DHT22;10495;50.922;4.760;2023-04-21T14:23:13;18.50;50.80
20672;DHT22;10495;50.922;4.760;2023-04-21T14:25:39;18.80;50.60
20672;DHT22;10495;50.922;4.760;2023-04-21T14:28:05;18.90;50.60
20672;DHT22;10495;50.922;4.760;2023-04-21T14:30:36;18.90;50.30
20672;DHT22;10495;50.922;4.760;2023-04-21T14:33:02;19.10;51.20
20672;DHT22;10495;50.922;4.760;2023-04-21T14:35:28;19.00;50.70
20672;DHT22;10495;50.922;4.760;2023-04-21T14:37:54;18.90;50.90
20672;DHT22;10495;50.922;4.760;2023-04-21T14:40:20;18.90;51.20
20672;DHT22;10495;50.922;4.760;2023-04-21T14:42:45;19.40;50.70
20672;DHT22;10495;50.922;4.760;2023-04-21T14:45:11;19.10;50.50
20672;DHT22;10495;50.922;4.760;2023-04-21T14:47:37;19.10;51.50
20672;DHT22;10495;50.922;4.760;2023-04-21T14:50:04;19.50;50.20
20672;DHT22;10495;50.922;4.760;2023-04-21T14:52:30;19.40;50.20
20672;DHT22;10495;50.922;4.760;2023-04-21T14:54:56;19.80;50.50
20672;DHT22;10495;50.922;4.760;2023-04-21T14:57:21;20.10;50.00
20672;DHT22;10495;50.922;4.760;2023-04-21T14:59:51;19.90;50.60
20672;DHT22;10495;50.922;4.760;2023-04-21T15:02:18;19.70;50.00
20672;DHT22;10495;50.922;4.760;2023-04-21T15:04:44;19.80;50.10
20672;DHT22;10495;50.922;4.760;2023-04-21T15:07:10;19.70;50.10
20672;DHT22;10495;50.922;4.760;2023-04-21T15:09:36;19.60;50.10
20672;DHT22;10495;50.922;4.760;2023-04-21T15:12:03;19.40;49.80
20672;DHT22;10495;50.922;4.760;2023-04-21T15:14:29;19.30;49.90
20672;DHT22;10495;50.922;4.760;2023-04-21T15:16:55;19.30;50.90
20672;DHT22;10495;50.922;4.760;2023-04-21T15:19:21;19.20;50.40
20672;DHT22;10495;50.922;4.760;2023-04-21T15:21:46;19.40;49.90
20672;DHT22;10495;50.922;4.760;2023-04-21T15:24:12;19.00;49.90
20672;DHT22;10495;50.922;4.760;2023-04-21T15:26:38;19.10;50.20
20672;DHT22;10495;50.922;4.760;2023-04-21T15:29:03;19.10;50.70
20672;DHT22;10495;50.922;4.760;2023-04-21T15:31:29;19.00;50.60
20672;DHT22;10495;50.922;4.760;2023-04-21T15:33:55;19.20;50.70
20672;DHT22;10495;50.922;4.760;2023-04-21T15:36:21;19.10;50.90
20672;DHT22;10495;50.922;4.760;2023-04-21T15:38:47;19.00;51.20
20672;DHT22;10495;50.922;4.760;2023-04-21T15:41:12;19.50;50.70
20672;DHT22;10495;50.922;4.760;2023-04-21T15:43:40;19.60;50.40
20672;DHT22;10495;50.922;4.760;2023-04-21T15:46:06;19.60;51.20
20672;DHT22;10495;50.922;4.760;2023-04-21T15:48:38;19.80;51.00